Current Weather

München

München, Germany (EDDM)

Report from: Tuesday, April 23, 2024 10:20 AM CEST
Current time: Tuesday, April 23, 2024 10:42 AM CEST

Nearby weather – Weather history – Daily summaries
Weather forecast

Present weatherLight rain and drizzle
Temperature2.0°C (35.6°F)
Wind chill-1.9°C (28.6°F)
Dew point1.0°C (33.8°F)
Winds 8 kts (4.1 m/s, 9.2 mph) Vrb
Winds variableWinds variable from North (359.999999°) to East-Northeast (60°)
Visibility6.2 mi. (10 km)
Clouds Ceiling: Broken clouds 800 ft. (244 m)
Overcast 1,200 ft. (366 m)
Broken clouds 1,200 ft. (366 m)
Altimeter29.97 in.Hg (1015 mB)
Relative humidity93 %
Density altitude-1,543 ft. (-470 m)
Remarks Fully automated report
Flight conditions Instrument Meteorological Conditions
Raw dataEDDM 230820Z AUTO 03008KT 360V060 9999 -RADZ BKN008 OVC012 02/01 Q1015 TEMPO BKN012
An error has occurred. This application may no longer respond until reloaded. Reload 🗙